METAR Data
IDs: Format: Raw Decoded Include TAF

Data at: 0114 UTC 06 Dec 2019

KGZS 060055Z AUTO 00000KT 10SM SCT065 BKN075 OVC110 10/04 A3011 RMK A01
KGZS 060035Z AUTO 00000KT 10SM BKN075 OVC100 09/05 A3011 RMK A01
KGZS 060015Z AUTO 00000KT 10SM BKN075 BKN090 OVC110 10/04 A3011 RMK A01
KGZS 052355Z AUTO 00000KT 10SM FEW080 SCT090 OVC110 10/03 A3010 RMK A01
KGZS 052335Z AUTO 00000KT 10SM BKN090 OVC110 11/03 A3010 RMK A01
KGZS 052315Z AUTO 00000KT 10SM BKN100 11/03 A3010 RMK A01
KGZS 052255Z AUTO 00000KT 10SM CLR 11/02 A3009 RMK A01
KGZS 052235Z AUTO 00000KT 10SM CLR 12/02 A3009 RMK A01
KGZS 052215Z AUTO 17003KT 10SM CLR 13/00 A3009 RMK A01
KGZS 052155Z AUTO 18004KT 10SM CLR 14/M00 A3009 RMK A01
KGZS 052135Z AUTO 17005KT 10SM CLR 16/M00 A3009 RMK A01
KGZS 052115Z AUTO 21006KT 10SM FEW120 16/M01 A3008 RMK A01
KGZS 052055Z AUTO 19006G11KT 10SM CLR 17/M01 A3009 RMK A01
KGZS 052035Z AUTO VRB05KT 10SM CLR 18/M00 A3009 RMK A01
KGZS 052015Z AUTO 16006KT 10SM CLR 17/M00 A3009 RMK A01
KGZS 051955Z AUTO VRB04G11KT 9SM CLR 17/M01 A3009 RMK A01
KGZS 051935Z AUTO VRB04KT 10SM CLR 17/00 A3009 RMK A01
KGZS 051915Z AUTO 22005KT 10SM CLR 17/00 A3010 RMK A01
KGZS 051855Z AUTO 17007KT 10SM CLR 16/00 A3011 RMK A01
KGZS 051835Z AUTO 16005KT 10SM CLR 16/01 A3011 RMK A01
KGZS 051815Z AUTO 09006KT 10SM CLR 15/02 A3012 RMK A01
KGZS 051755Z AUTO 15007KT 10SM CLR 14/02 A3013 RMK A01
KGZS 051735Z AUTO 12006KT 10SM CLR 14/02 A3013 RMK A01
KGZS 051715Z AUTO 14008KT 10SM CLR 13/02 A3014 RMK A01
KGZS 051655Z AUTO 13006KT 10SM CLR 12/02 A3016 RMK A01
KGZS 051615Z AUTO 00000KT 10SM CLR 09/04 A3016 RMK A01
KGZS 051555Z AUTO 00000KT 10SM CLR 07/04 A3016 RMK A01
KGZS 051535Z AUTO 00000KT 10SM CLR 06/03 A3016 RMK A01
KGZS 051515Z AUTO 00000KT 10SM CLR 05/03 A3016 RMK A01
KGZS 051455Z AUTO 00000KT 10SM CLR 04/03 A3016 RMK A01
KGZS 051435Z AUTO 00000KT 10SM CLR 04/02 A3016 RMK A01
KGZS 051415Z AUTO 00000KT 10SM CLR 03/02 A3015 RMK A01
KGZS 051355Z AUTO 00000KT 10SM CLR 01/01 A3014 RMK A01
KGZS 051335Z AUTO 00000KT 10SM CLR 01/00 A3013 RMK A01
KGZS 051315Z AUTO 00000KT 10SM CLR 01/00 A3013 RMK A01
KGZS 051255Z AUTO 00000KT 10SM CLR 01/00 A3012 RMK A01
KGZS 051235Z AUTO 00000KT 10SM CLR 01/00 A3012 RMK A01
KGZS 051215Z AUTO 00000KT 10SM CLR 01/00 A3010 RMK A01
KGZS 051155Z AUTO 00000KT 10SM CLR 00/00 A3009 RMK A01
KGZS 051135Z AUTO 00000KT 10SM CLR 00/00 A3008 RMK A01
KGZS 051115Z AUTO 00000KT 10SM CLR 00/M00 A3008 RMK A01
KGZS 051055Z AUTO 00000KT 10SM CLR 00/M00 A3008 RMK A01
KGZS 051035Z AUTO 00000KT 10SM CLR 00/M00 A3007 RMK A01
KGZS 051015Z AUTO 00000KT 10SM CLR M00/M01 A3006 RMK A01
KGZS 050955Z AUTO 00000KT 10SM CLR M01/M01 A3006 RMK A01
KGZS 050935Z AUTO 00000KT 10SM CLR M01/M01 A3006 RMK A01
KGZS 050915Z AUTO 00000KT 10SM CLR M01/M01 A3005 RMK A01
KGZS 050855Z AUTO 00000KT 10SM CLR M01/M01 A3005 RMK A01
KGZS 050835Z AUTO 00000KT 10SM CLR M01/M01 A3005 RMK A01
KGZS 050815Z AUTO 00000KT 10SM CLR M00/M01 A3004 RMK A01
KGZS 050755Z AUTO 00000KT 10SM CLR M00/M01 A3004 RMK A01
KGZS 050735Z AUTO 00000KT 10SM CLR 00/M01 A3004 RMK A01
KGZS 050715Z AUTO 00000KT 10SM CLR 00/M00 A3004 RMK A01
KGZS 050655Z AUTO 00000KT 10SM CLR 01/M00 A3004 RMK A01
KGZS 050615Z AUTO 00000KT 10SM CLR 01/M00 A3004 RMK A01
KGZS 050555Z AUTO 00000KT 10SM CLR 00/M00 A3004 RMK A01
KGZS 050535Z AUTO 00000KT 10SM CLR 00/M01 A3004 RMK A01
KGZS 050515Z AUTO 00000KT 10SM CLR 01/M00 A3004 RMK A01
KGZS 050455Z AUTO 00000KT 10SM CLR 00/M01 A3004 RMK A01
KGZS 050435Z AUTO 00000KT 10SM CLR 00/M01 A3003 RMK A01
KGZS 050415Z AUTO 00000KT 10SM CLR 00/M01 A3004 RMK A01
KGZS 050355Z AUTO 00000KT 10SM CLR 01/M00 A3003 RMK A01
KGZS 050335Z AUTO 00000KT 10SM CLR 01/M01 A3002 RMK A01
KGZS 050315Z AUTO 00000KT 10SM CLR 01/M00 A3001 RMK A01
KGZS 050255Z AUTO 00000KT 10SM CLR 02/M00 A3000 RMK A01
KGZS 050235Z AUTO 00000KT 10SM CLR 02/00 A2999 RMK A01
KGZS 050215Z AUTO 00000KT 10SM CLR 02/00 A2999 RMK A01
KGZS 050155Z AUTO 00000KT 10SM CLR 02/M00 A2999 RMK A01
KGZS 050135Z AUTO 00000KT 10SM CLR 03/01 A2998 RMK A01
KGZS 050115Z AUTO 00000KT 10SM CLR 03/00 A2998 RMK A01
KGZS 050055Z AUTO 00000KT 10SM CLR 04/00 A2998 RMK A01
KGZS 050035Z AUTO 00000KT 10SM CLR 05/01 A2997 RMK A01
KGZS 050015Z AUTO 00000KT 10SM CLR 05/01 A2997 RMK A01
KGZS 042355Z AUTO 00000KT 10SM CLR 05/01 A2997 RMK A01
KGZS 042335Z AUTO 00000KT 10SM CLR 07/00 A2996 RMK A01
KGZS 042315Z AUTO 29003KT 10SM CLR 08/00 A2996 RMK A01
KGZS 042255Z AUTO 29004KT 10SM CLR 11/M01 A2996 RMK A01
KGZS 042235Z AUTO 31004KT 10SM CLR 12/M00 A2995 RMK A01
KGZS 042215Z AUTO 29005KT 10SM CLR 14/M01 A2994 RMK A01
KGZS 042155Z AUTO 28005KT 10SM CLR 14/M01 A2993 RMK A01
KGZS 042135Z AUTO 31006KT 10SM CLR 15/M02 A2993 RMK A01
KGZS 042115Z AUTO 32008KT 10SM CLR 16/M02 A2993 RMK A01
KGZS 042055Z AUTO 32009KT 10SM CLR 16/M02 A2993 RMK A01
KGZS 042035Z AUTO 32008KT 10SM CLR 16/M01 A2991 RMK A01
KGZS 042015Z AUTO 31007KT 10SM CLR 15/M01 A2991 RMK A01
KGZS 041955Z AUTO 31006G12KT 10SM CLR 15/M01 A2991 RMK A01
KGZS 041935Z AUTO 30007KT 260V340 10SM CLR 16/M01 A2991 RMK A01
KGZS 041915Z AUTO 30008KT 260V330 10SM CLR 16/M01 A2991 RMK A01
KGZS 041855Z AUTO 30007KT 270V330 10SM CLR 15/00 A2991 RMK A01
KGZS 041835Z AUTO 32011KT 10SM CLR 15/M00 A2991 RMK A01
KGZS 041815Z AUTO 31010G17KT 10SM CLR 14/00 A2992 RMK A01
KGZS 041755Z AUTO 33009G16KT 10SM CLR 14/01 A2992 RMK A01
KGZS 041735Z AUTO 33008KT 10SM CLR 14/01 A2993 RMK A01
KGZS 041715Z AUTO 31009KT 10SM CLR 13/01 A2994 RMK A01
KGZS 041655Z AUTO 33008KT 10SM CLR 13/02 A2995 RMK A01
KGZS 041635Z AUTO VRB06KT 10SM CLR 13/02 A2996 RMK A01
KGZS 041615Z AUTO 00000KT 10SM CLR 11/03 A2996 RMK A01
KGZS 041555Z AUTO 00000KT 10SM CLR 09/04 A2996 RMK A01
KGZS 041535Z AUTO 00000KT 10SM CLR 08/04 A2996 RMK A01
KGZS 041515Z AUTO 00000KT 10SM CLR 06/03 A2995 RMK A01
KGZS 041455Z AUTO 00000KT 10SM CLR 05/03 A2995 RMK A01
KGZS 041435Z AUTO 00000KT 10SM CLR 03/02 A2995 RMK A01
KGZS 041415Z AUTO 00000KT 10SM CLR 02/01 A2994 RMK A01
KGZS 041355Z AUTO 00000KT 10SM CLR 00/00 A2994 RMK A01
KGZS 041335Z AUTO 00000KT 10SM CLR M01/M01 A2993 RMK A01
KGZS 041315Z AUTO 00000KT 10SM CLR M02/M02 A2992 RMK A01